sensor_id;sensor_type;location;lat;lon;timestamp;pressure;altitude;pressure_sealevel;temperature;humidity
11648;BME280;5880;52.342;9.662;2023-04-04T00:01:56;102437.81;;;7.35;34.62
11648;BME280;5880;52.342;9.662;2023-04-04T00:04:25;102424.38;;;7.25;34.57
11648;BME280;5880;52.342;9.662;2023-04-04T00:06:51;102436.78;;;7.28;34.60
11648;BME280;5880;52.342;9.662;2023-04-04T00:09:17;102441.88;;;7.23;34.75
11648;BME280;5880;52.342;9.662;2023-04-04T00:11:43;102438.47;;;7.21;35.19
11648;BME280;5880;52.342;9.662;2023-04-04T00:14:09;102436.78;;;7.19;34.99
11648;BME280;5880;52.342;9.662;2023-04-04T00:16:34;102432.69;;;7.15;35.03
11648;BME280;5880;52.342;9.662;2023-04-04T00:19:01;102421.63;;;7.09;34.67
11648;BME280;5880;52.342;9.662;2023-04-04T00:21:26;102441.69;;;7.16;34.80
11648;BME280;5880;52.342;9.662;2023-04-04T00:23:56;102439.84;;;7.16;35.48
11648;BME280;5880;52.342;9.662;2023-04-04T00:26:23;102441.69;;;7.16;34.96
11648;BME280;5880;52.342;9.662;2023-04-04T00:28:48;102440.84;;;7.15;35.06
11648;BME280;5880;52.342;9.662;2023-04-04T00:31:14;102437.97;;;7.17;35.06
11648;BME280;5880;52.342;9.662;2023-04-04T00:33:40;102431.00;;;7.14;34.96
11648;BME280;5880;52.342;9.662;2023-04-04T00:36:06;102439.16;;;7.14;35.28
11648;BME280;5880;52.342;9.662;2023-04-04T00:38:32;102437.44;;;7.13;34.94
11648;BME280;5880;52.342;9.662;2023-04-04T00:40:58;102439.31;;;7.13;35.05
11648;BME280;5880;52.342;9.662;2023-04-04T00:43:25;102435.06;;;7.10;35.30
11648;BME280;5880;52.342;9.662;2023-04-04T00:45:51;102441.69;;;7.08;34.99
11648;BME280;5880;52.342;9.662;2023-04-04T00:48:17;102440.16;;;7.05;34.96
11648;BME280;5880;52.342;9.662;2023-04-04T00:50:44;102435.03;;;7.02;35.54
11648;BME280;5880;52.342;9.662;2023-04-04T00:53:10;102437.22;;;6.98;35.02
11648;BME280;5880;52.342;9.662;2023-04-04T00:55:37;102420.03;;;6.90;35.28
11648;BME280;5880;52.342;9.662;2023-04-04T00:58:04;102433.47;;;6.91;35.08
11648;BME280;5880;52.342;9.662;2023-04-04T01:00:34;102423.44;;;6.84;35.32
11648;BME280;5880;52.342;9.662;2023-04-04T01:03:00;102424.06;;;6.78;34.74
11648;BME280;5880;52.342;9.662;2023-04-04T01:05:27;102435.94;;;6.76;35.41
11648;BME280;5880;52.342;9.662;2023-04-04T01:07:52;102430.16;;;6.71;35.14
11648;BME280;5880;52.342;9.662;2023-04-04T01:10:19;102427.56;;;6.62;35.49
11648;BME280;5880;52.342;9.662;2023-04-04T01:12:45;102433.00;;;6.62;34.90
11648;BME280;5880;52.342;9.662;2023-04-04T01:15:10;102437.72;;;6.60;35.38
11648;BME280;5880;52.342;9.662;2023-04-04T01:17:36;102432.78;;;6.55;35.79
11648;BME280;5880;52.342;9.662;2023-04-04T01:20:16;102434.81;;;6.53;35.39
11648;BME280;5880;52.342;9.662;2023-04-04T01:22:46;102431.91;;;6.46;35.54
11648;BME280;5880;52.342;9.662;2023-04-04T01:25:15;102424.91;;;6.44;35.69
11648;BME280;5880;52.342;9.662;2023-04-04T01:27:42;102418.81;;;6.42;35.85
11648;BME280;5880;52.342;9.662;2023-04-04T01:30:09;102425.22;;;6.41;35.70
11648;BME280;5880;52.342;9.662;2023-04-04T01:32:52;102423.69;;;6.38;35.91
11648;BME280;5880;52.342;9.662;2023-04-04T01:38:14;102418.91;;;6.32;35.73
11648;BME280;5880;52.342;9.662;2023-04-04T01:40:48;102425.50;;;6.29;35.88
11648;BME280;5880;52.342;9.662;2023-04-04T01:43:14;102419.56;;;6.26;35.96
11648;BME280;5880;52.342;9.662;2023-04-04T01:45:40;102420.53;;;6.25;35.96
11648;BME280;5880;52.342;9.662;2023-04-04T01:48:06;102408.00;;;6.24;36.18
11648;BME280;5880;52.342;9.662;2023-04-04T01:50:32;102415.28;;;6.23;36.13
11648;BME280;5880;52.342;9.662;2023-04-04T01:52:58;102411.75;;;6.23;36.11
11648;BME280;5880;52.342;9.662;2023-04-04T01:55:23;102411.88;;;6.21;36.13
11648;BME280;5880;52.342;9.662;2023-04-04T01:57:49;102406.78;;;6.18;36.08
11648;BME280;5880;52.342;9.662;2023-04-04T02:00:15;102407.63;;;6.19;36.40
11648;BME280;5880;52.342;9.662;2023-04-04T02:02:42;102406.94;;;6.17;36.40
11648;BME280;5880;52.342;9.662;2023-04-04T02:05:07;102400.81;;;6.15;35.92
11648;BME280;5880;52.342;9.662;2023-04-04T02:07:33;102396.41;;;6.13;36.21
11648;BME280;5880;52.342;9.662;2023-04-04T02:09:58;102404.69;;;6.12;36.10
11648;BME280;5880;52.342;9.662;2023-04-04T02:12:24;102401.44;;;6.08;36.16
11648;BME280;5880;52.342;9.662;2023-04-04T02:14:50;102401.44;;;6.08;36.71
11648;BME280;5880;52.342;9.662;2023-04-04T02:17:16;102403.31;;;6.08;36.35
11648;BME280;5880;52.342;9.662;2023-04-04T02:19:42;102409.91;;;6.05;36.23
11648;BME280;5880;52.342;9.662;2023-04-04T02:22:08;102403.78;;;6.03;36.44
11648;BME280;5880;52.342;9.662;2023-04-04T02:24:33;102412.94;;;6.02;36.75
11648;BME280;5880;52.342;9.662;2023-04-04T02:26:59;102399.53;;;6.01;36.25
11648;BME280;5880;52.342;9.662;2023-04-04T02:29:25;102402.38;;;5.99;36.47
11648;BME280;5880;52.342;9.662;2023-04-04T02:31:51;102397.97;;;5.98;36.49
11648;BME280;5880;52.342;9.662;2023-04-04T02:34:17;102400.69;;;5.98;36.43
11648;BME280;5880;52.342;9.662;2023-04-04T02:36:42;102391.59;;;5.89;36.83
11648;BME280;5880;52.342;9.662;2023-04-04T02:39:08;102394.88;;;5.93;36.52
11648;BME280;5880;52.342;9.662;2023-04-04T02:41:33;102385.88;;;5.92;36.95
11648;BME280;5880;52.342;9.662;2023-04-04T02:43:59;102386.03;;;5.91;36.49
11648;BME280;5880;52.342;9.662;2023-04-04T02:46:25;102380.75;;;5.89;36.69
11648;BME280;5880;52.342;9.662;2023-04-04T02:48:51;102375.31;;;5.89;36.50
11648;BME280;5880;52.342;9.662;2023-04-04T02:51:17;102371.06;;;5.87;36.95
11648;BME280;5880;52.342;9.662;2023-04-04T02:53:43;102366.81;;;5.84;37.15
11648;BME280;5880;52.342;9.662;2023-04-04T02:56:08;102372.22;;;5.84;36.90
11648;BME280;5880;52.342;9.662;2023-04-04T02:58:34;102362.41;;;5.83;37.05
11648;BME280;5880;52.342;9.662;2023-04-04T03:01:00;102367.13;;;5.81;37.04
11648;BME280;5880;52.342;9.662;2023-04-04T03:03:25;102358.28;;;5.79;37.07
11648;BME280;5880;52.342;9.662;2023-04-04T03:05:51;102362.00;;;5.78;36.99
11648;BME280;5880;52.342;9.662;2023-04-04T03:08:17;102360.47;;;5.76;37.03
11648;BME280;5880;52.342;9.662;2023-04-04T03:10:44;102354.03;;;5.77;37.11
11648;BME280;5880;52.342;9.662;2023-04-04T03:13:11;102351.47;;;5.75;37.33
11648;BME280;5880;52.342;9.662;2023-04-04T03:15:37;102352.63;;;5.72;37.04
11648;BME280;5880;52.342;9.662;2023-04-04T03:18:05;102353.47;;;5.73;37.21
11648;BME280;5880;52.342;9.662;2023-04-04T03:20:31;102350.06;;;5.71;37.49
11648;BME280;5880;52.342;9.662;2023-04-04T03:22:57;102344.66;;;5.71;37.64
11648;BME280;5880;52.342;9.662;2023-04-04T03:25:23;102342.97;;;5.70;36.98
11648;BME280;5880;52.342;9.662;2023-04-04T03:27:49;102350.25;;;5.69;37.09
11648;BME280;5880;52.342;9.662;2023-04-04T03:30:14;102344.97;;;5.68;37.24
11648;BME280;5880;52.342;9.662;2023-04-04T03:32:40;102339.56;;;5.68;37.36
11648;BME280;5880;52.342;9.662;2023-04-04T03:35:06;102341.41;;;5.67;37.60
11648;BME280;5880;52.342;9.662;2023-04-04T03:37:32;102343.09;;;5.68;37.78
11648;BME280;5880;52.342;9.662;2023-04-04T03:39:58;102335.63;;;5.62;37.34
11648;BME280;5880;52.342;9.662;2023-04-04T03:42:24;102335.16;;;5.67;37.63
11648;BME280;5880;52.342;9.662;2023-04-04T03:44:53;102348.72;;;5.67;37.50
11648;BME280;5880;52.342;9.662;2023-04-04T03:47:19;102335.44;;;5.64;37.86
11648;BME280;5880;52.342;9.662;2023-04-04T03:49:45;102333.59;;;5.64;38.07
11648;BME280;5880;52.342;9.662;2023-04-04T03:52:11;102338.16;;;5.64;37.72
11648;BME280;5880;52.342;9.662;2023-04-04T03:54:36;102329.16;;;5.63;37.66
11648;BME280;5880;52.342;9.662;2023-04-04T03:57:02;102321.50;;;5.59;37.69
11648;BME280;5880;52.342;9.662;2023-04-04T03:59:28;102332.91;;;5.62;37.65
11648;BME280;5880;52.342;9.662;2023-04-04T04:01:54;102325.75;;;5.61;37.86
11648;BME280;5880;52.342;9.662;2023-04-04T04:04:19;102320.50;;;5.60;38.07
11648;BME280;5880;52.342;9.662;2023-04-04T04:06:45;102325.94;;;5.60;37.58
11648;BME280;5880;52.342;9.662;2023-04-04T04:09:13;102324.22;;;5.59;37.55
11648;BME280;5880;52.342;9.662;2023-04-04T04:11:39;102333.38;;;5.58;37.93
11648;BME280;5880;52.342;9.662;2023-04-04T04:14:05;102330.81;;;5.56;38.15
11648;BME280;5880;52.342;9.662;2023-04-04T04:16:31;102332.69;;;5.56;38.35
11648;BME280;5880;52.342;9.662;2023-04-04T04:18:57;102331.84;;;5.55;38.28
11648;BME280;5880;52.342;9.662;2023-04-04T04:21:23;102325.72;;;5.53;38.16
11648;BME280;5880;52.342;9.662;2023-04-04T04:23:50;102334.56;;;5.55;37.78
11648;BME280;5880;52.342;9.662;2023-04-04T04:26:16;102329.13;;;5.55;38.12
11648;BME280;5880;52.342;9.662;2023-04-04T04:28:42;102332.81;;;5.54;38.20
11648;BME280;5880;52.342;9.662;2023-04-04T04:31:08;102324.16;;;5.50;37.98
11648;BME280;5880;52.342;9.662;2023-04-04T04:33:35;102340.97;;;5.54;38.19
11648;BME280;5880;52.342;9.662;2023-04-04T04:36:04;102334.69;;;5.54;38.41
11648;BME280;5880;52.342;9.662;2023-04-04T04:38:31;102333.00;;;5.53;38.17
11648;BME280;5880;52.342;9.662;2023-04-04T04:40:59;102335.72;;;5.53;38.46
11648;BME280;5880;52.342;9.662;2023-04-04T04:43:25;102333.84;;;5.53;38.44
11648;BME280;5880;52.342;9.662;2023-04-04T04:45:50;102331.13;;;5.53;38.31
11648;BME280;5880;52.342;9.662;2023-04-04T04:48:16;102333.84;;;5.53;38.62
11648;BME280;5880;52.342;9.662;2023-04-04T04:50:44;102334.69;;;5.54;38.58
11648;BME280;5880;52.342;9.662;2023-04-04T04:53:09;102327.72;;;5.51;38.54
11648;BME280;5880;52.342;9.662;2023-04-04T04:55:35;102338.44;;;5.53;38.66
11648;BME280;5880;52.342;9.662;2023-04-04T04:58:01;102333.84;;;5.53;38.60
11648;BME280;5880;52.342;9.662;2023-04-04T05:00:27;102329.41;;;5.52;38.88
11648;BME280;5880;52.342;9.662;2023-04-04T05:02:57;102331.13;;;5.53;38.36
11648;BME280;5880;52.342;9.662;2023-04-04T05:05:25;102323.16;;;5.52;38.36
11648;BME280;5880;52.342;9.662;2023-04-04T05:07:51;102329.41;;;5.52;38.79
11648;BME280;5880;52.342;9.662;2023-04-04T05:10:17;102335.03;;;5.50;38.52
11648;BME280;5880;52.342;9.662;2023-04-04T05:12:44;102337.56;;;5.52;38.87
11648;BME280;5880;52.342;9.662;2023-04-04T05:15:12;102336.72;;;5.52;39.05
11648;BME280;5880;52.342;9.662;2023-04-04T05:17:38;102345.69;;;5.52;38.79
11648;BME280;5880;52.342;9.662;2023-04-04T05:20:06;102342.84;;;5.54;39.02
11648;BME280;5880;52.342;9.662;2023-04-04T05:22:32;102353.69;;;5.54;38.81
11648;BME280;5880;52.342;9.662;2023-04-04T05:24:58;102353.34;;;5.57;38.79
11648;BME280;5880;52.342;9.662;2023-04-04T05:27:23;102355.09;;;5.58;39.09
11648;BME280;5880;52.342;9.662;2023-04-04T05:29:50;102350.34;;;5.60;39.05
11648;BME280;5880;52.342;9.662;2023-04-04T05:32:16;102352.75;;;5.63;38.99
11648;BME280;5880;52.342;9.662;2023-04-04T05:34:41;102355.31;;;5.64;39.23
11648;BME280;5880;52.342;9.662;2023-04-04T05:37:07;102361.25;;;5.68;39.54
11648;BME280;5880;52.342;9.662;2023-04-04T05:39:33;102365.69;;;5.69;39.13
11648;BME280;5880;52.342;9.662;2023-04-04T05:41:59;102368.78;;;5.74;39.35
11648;BME280;5880;52.342;9.662;2023-04-04T05:44:24;102365.75;;;5.77;39.43
11648;BME280;5880;52.342;9.662;2023-04-04T05:46:50;102364.41;;;5.81;39.77
11648;BME280;5880;52.342;9.662;2023-04-04T05:49:16;102366.31;;;5.89;39.86
11648;BME280;5880;52.342;9.662;2023-04-04T05:51:42;102372.16;;;5.94;39.70
11648;BME280;5880;52.342;9.662;2023-04-04T05:54:07;102355.88;;;5.94;39.56
11648;BME280;5880;52.342;9.662;2023-04-04T05:56:33;102356.09;;;6.01;40.02
11648;BME280;5880;52.342;9.662;2023-04-04T05:58:59;102369.41;;;6.12;39.73
11648;BME280;5880;52.342;9.662;2023-04-04T06:01:25;102364.47;;;6.16;40.10
11648;BME280;5880;52.342;9.662;2023-04-04T06:03:51;102364.34;;;6.17;40.04
11648;BME280;5880;52.342;9.662;2023-04-04T06:06:17;102377.78;;;6.27;40.26
11648;BME280;5880;52.342;9.662;2023-04-04T06:08:43;102376.31;;;6.32;40.30
11648;BME280;5880;52.342;9.662;2023-04-04T06:11:08;102382.94;;;6.38;40.51
11648;BME280;5880;52.342;9.662;2023-04-04T06:13:34;102376.22;;;6.50;40.88
11648;BME280;5880;52.342;9.662;2023-04-04T06:16:00;102385.47;;;6.66;41.54
11648;BME280;5880;52.342;9.662;2023-04-04T06:18:25;102379.09;;;6.91;42.10
11648;BME280;5880;52.342;9.662;2023-04-04T06:20:51;102373.91;;;7.39;43.36
11648;BME280;5880;52.342;9.662;2023-04-04T06:23:17;102377.13;;;8.00;43.58
11648;BME280;5880;52.342;9.662;2023-04-04T06:25:43;102379.00;;;8.63;44.21
11648;BME280;5880;52.342;9.662;2023-04-04T06:28:08;102378.72;;;9.21;43.78
11648;BME280;5880;52.342;9.662;2023-04-04T06:30:35;102382.59;;;9.72;43.52
11648;BME280;5880;52.342;9.662;2023-04-04T06:33:03;102388.03;;;10.25;43.44
11648;BME280;5880;52.342;9.662;2023-04-04T06:35:29;102385.72;;;10.82;43.26
11648;BME280;5880;52.342;9.662;2023-04-04T06:37:55;102387.03;;;11.44;43.36
11648;BME280;5880;52.342;9.662;2023-04-04T06:40:21;102382.78;;;12.12;43.34
11648;BME280;5880;52.342;9.662;2023-04-04T06:42:48;102386.59;;;12.87;43.49
11648;BME280;5880;52.342;9.662;2023-04-04T06:45:15;102383.22;;;13.54;42.78
11648;BME280;5880;52.342;9.662;2023-04-04T06:47:42;102381.94;;;14.16;42.53
11648;BME280;5880;52.342;9.662;2023-04-04T06:50:09;102375.31;;;14.64;41.83
11648;BME280;5880;52.342;9.662;2023-04-04T06:52:35;102391.22;;;15.07;40.94
11648;BME280;5880;52.342;9.662;2023-04-04T06:55:00;102386.59;;;15.39;40.13
11648;BME280;5880;52.342;9.662;2023-04-04T06:57:26;102384.94;;;15.63;39.90
11648;BME280;5880;52.342;9.662;2023-04-04T06:59:52;102376.50;;;15.90;39.21
11648;BME280;5880;52.342;9.662;2023-04-04T07:02:18;102379.00;;;16.16;39.13
11648;BME280;5880;52.342;9.662;2023-04-04T07:04:43;102386.22;;;16.36;38.26
11648;BME280;5880;52.342;9.662;2023-04-04T07:07:11;102393.53;;;16.49;38.09
11648;BME280;5880;52.342;9.662;2023-04-04T07:09:36;102400.88;;;16.73;38.48
11648;BME280;5880;52.342;9.662;2023-04-04T07:12:03;102390.66;;;17.11;38.39
11648;BME280;5880;52.342;9.662;2023-04-04T07:14:28;102392.84;;;17.50;38.20
11648;BME280;5880;52.342;9.662;2023-04-04T07:16:54;102392.50;;;17.89;37.93
11648;BME280;5880;52.342;9.662;2023-04-04T07:19:20;102387.09;;;18.29;37.63
11648;BME280;5880;52.342;9.662;2023-04-04T07:21:48;102390.41;;;18.67;37.19
11648;BME280;5880;52.342;9.662;2023-04-04T07:24:14;102394.31;;;19.06;36.98
11648;BME280;5880;52.342;9.662;2023-04-04T07:26:40;102399.19;;;19.45;36.60
11648;BME280;5880;52.342;9.662;2023-04-04T07:29:06;102400.34;;;19.77;36.36
11648;BME280;5880;52.342;9.662;2023-04-04T07:31:31;102398.50;;;20.17;35.74
11648;BME280;5880;52.342;9.662;2023-04-04T07:33:57;102400.56;;;20.60;35.62
11648;BME280;5880;52.342;9.662;2023-04-04T07:36:22;102395.97;;;20.93;34.90
11648;BME280;5880;52.342;9.662;2023-04-04T07:38:48;102403.25;;;21.21;34.34
11648;BME280;5880;52.342;9.662;2023-04-04T07:41:15;102400.47;;;21.48;34.24
11648;BME280;5880;52.342;9.662;2023-04-04T07:43:41;102394.38;;;21.84;33.94
11648;BME280;5880;52.342;9.662;2023-04-04T07:46:06;102393.78;;;22.14;33.66
11648;BME280;5880;52.342;9.662;2023-04-04T07:48:32;102389.84;;;22.47;33.50
11648;BME280;5880;52.342;9.662;2023-04-04T07:50:57;102387.81;;;22.85;33.36
11648;BME280;5880;52.342;9.662;2023-04-04T07:53:26;102388.53;;;23.28;33.13
11648;BME280;5880;52.342;9.662;2023-04-04T07:55:51;102391.09;;;23.66;32.35
11648;BME280;5880;52.342;9.662;2023-04-04T07:58:17;102387.19;;;23.97;32.02
11648;BME280;5880;52.342;9.662;2023-04-04T08:00:43;102386.59;;;24.26;31.31
11648;BME280;5880;52.342;9.662;2023-04-04T08:03:08;102381.25;;;24.40;31.05
11648;BME280;5880;52.342;9.662;2023-04-04T08:05:34;102382.91;;;24.41;30.75
11648;BME280;5880;52.342;9.662;2023-04-04T08:08:00;102384.94;;;24.20;29.91
11648;BME280;5880;52.342;9.662;2023-04-04T08:10:26;102391.41;;;23.74;28.68
11648;BME280;5880;52.342;9.662;2023-04-04T08:12:51;102363.59;;;22.96;28.58
11648;BME280;5880;52.342;9.662;2023-04-04T08:15:17;102373.13;;;22.47;28.50
11648;BME280;5880;52.342;9.662;2023-04-04T08:17:43;102378.22;;;22.18;28.88
11648;BME280;5880;52.342;9.662;2023-04-04T08:20:09;102367.56;;;22.05;29.14
11648;BME280;5880;52.342;9.662;2023-04-04T08:22:35;102362.34;;;22.19;29.76
11648;BME280;5880;52.342;9.662;2023-04-04T08:25:02;102369.50;;;22.47;29.75
11648;BME280;5880;52.342;9.662;2023-04-04T08:27:28;102364.31;;;22.71;29.81
11648;BME280;5880;52.342;9.662;2023-04-04T08:29:53;102361.09;;;22.94;29.53
11648;BME280;5880;52.342;9.662;2023-04-04T08:32:19;102365.22;;;22.92;28.58
11648;BME280;5880;52.342;9.662;2023-04-04T08:34:45;102358.97;;;22.54;28.66
11648;BME280;5880;52.342;9.662;2023-04-04T08:37:10;102361.19;;;22.09;28.19
11648;BME280;5880;52.342;9.662;2023-04-04T08:39:36;102353.16;;;21.43;27.91
11648;BME280;5880;52.342;9.662;2023-04-04T08:42:06;102361.53;;;20.72;25.52
11648;BME280;5880;52.342;9.662;2023-04-04T08:44:34;102366.53;;;19.80;26.75
11648;BME280;5880;52.342;9.662;2023-04-04T08:47:06;102368.72;;;19.16;27.79
11648;BME280;5880;52.342;9.662;2023-04-04T08:49:37;102365.94;;;18.75;28.52
11648;BME280;5880;52.342;9.662;2023-04-04T08:52:07;102360.19;;;18.53;28.92
11648;BME280;5880;52.342;9.662;2023-04-04T08:54:38;102359.72;;;18.45;29.04
11648;BME280;5880;52.342;9.662;2023-04-04T08:57:05;102355.19;;;18.39;29.06
11648;BME280;5880;52.342;9.662;2023-04-04T08:59:31;102364.72;;;18.31;28.84
11648;BME280;5880;52.342;9.662;2023-04-04T09:04:36;102358.16;;;17.78;27.83
11648;BME280;5880;52.342;9.662;2023-04-04T09:07:03;102358.34;;;17.53;28.46
11648;BME280;5880;52.342;9.662;2023-04-04T09:09:33;102349.94;;;17.48;29.07
11648;BME280;5880;52.342;9.662;2023-04-04T09:12:00;102359.25;;;17.77;29.55
11648;BME280;5880;52.342;9.662;2023-04-04T09:14:29;102349.91;;;18.25;29.71
11648;BME280;5880;52.342;9.662;2023-04-04T09:16:56;102352.09;;;18.87;29.67
11648;BME280;5880;52.342;9.662;2023-04-04T09:19:22;102348.38;;;19.56;28.82
11648;BME280;5880;52.342;9.662;2023-04-04T09:21:49;102343.94;;;19.89;28.02
11648;BME280;5880;52.342;9.662;2023-04-04T09:24:15;102349.53;;;20.11;27.72
11648;BME280;5880;52.342;9.662;2023-04-04T09:26:52;102343.03;;;20.22;25.97
11648;BME280;5880;52.342;9.662;2023-04-04T09:29:19;102340.44;;;20.15;25.42
11648;BME280;5880;52.342;9.662;2023-04-04T09:31:46;102349.63;;;20.16;26.65
11648;BME280;5880;52.342;9.662;2023-04-04T09:34:15;102342.69;;;20.35;26.78
11648;BME280;5880;52.342;9.662;2023-04-04T09:36:43;102348.31;;;20.62;27.06
11648;BME280;5880;52.342;9.662;2023-04-04T09:39:10;102336.63;;;20.82;26.54
11648;BME280;5880;52.342;9.662;2023-04-04T09:41:39;102339.28;;;21.21;26.73
11648;BME280;5880;52.342;9.662;2023-04-04T09:44:06;102325.78;;;21.62;26.66
11648;BME280;5880;52.342;9.662;2023-04-04T09:46:32;102326.09;;;22.08;26.13
11648;BME280;5880;52.342;9.662;2023-04-04T09:49:01;102326.84;;;22.36;25.91
11648;BME280;5880;52.342;9.662;2023-04-04T09:51:34;102334.22;;;22.68;25.72
11648;BME280;5880;52.342;9.662;2023-04-04T09:54:09;102328.44;;;22.90;25.23
11648;BME280;5880;52.342;9.662;2023-04-04T09:56:36;102334.31;;;22.93;25.59
11648;BME280;5880;52.342;9.662;2023-04-04T09:59:05;102333.22;;;22.94;25.17
11648;BME280;5880;52.342;9.662;2023-04-04T10:01:32;102341.84;;;22.93;24.83
11648;BME280;5880;52.342;9.662;2023-04-04T10:03:58;102337.06;;;22.83;24.89
11648;BME280;5880;52.342;9.662;2023-04-04T10:06:25;102341.19;;;22.70;24.21
11648;BME280;5880;52.342;9.662;2023-04-04T10:08:51;102341.09;;;22.50;24.50
11648;BME280;5880;52.342;9.662;2023-04-04T10:11:33;102338.72;;;22.21;24.34
11648;BME280;5880;52.342;9.662;2023-04-04T10:14:01;102329.00;;;21.86;24.74
11648;BME280;5880;52.342;9.662;2023-04-04T10:16:32;102331.94;;;21.69;25.10
11648;BME280;5880;52.342;9.662;2023-04-04T10:19:00;102322.16;;;21.62;25.39
11648;BME280;5880;52.342;9.662;2023-04-04T10:21:26;102322.91;;;21.52;24.98
11648;BME280;5880;52.342;9.662;2023-04-04T10:23:53;102318.19;;;21.53;25.16
11648;BME280;5880;52.342;9.662;2023-04-04T10:26:20;102323.13;;;21.45;24.38
11648;BME280;5880;52.342;9.662;2023-04-04T10:28:47;102323.47;;;21.27;24.48
11648;BME280;5880;52.342;9.662;2023-04-04T10:31:24;102325.09;;;21.23;24.68
11648;BME280;5880;52.342;9.662;2023-04-04T10:34:14;102321.66;;;21.11;24.95
11648;BME280;5880;52.342;9.662;2023-04-04T10:36:53;102323.72;;;20.71;24.58
11648;BME280;5880;52.342;9.662;2023-04-04T10:39:29;102316.88;;;20.18;24.69
11648;BME280;5880;52.342;9.662;2023-04-04T10:41:57;102312.38;;;19.61;24.73
11648;BME280;5880;52.342;9.662;2023-04-04T10:44:38;102310.91;;;19.08;24.95
11648;BME280;5880;52.342;9.662;2023-04-04T10:47:22;102299.16;;;18.60;25.07
11648;BME280;5880;52.342;9.662;2023-04-04T10:49:51;102317.53;;;18.14;25.09
11648;BME280;5880;52.342;9.662;2023-04-04T10:52:23;102302.34;;;17.58;24.56
11648;BME280;5880;52.342;9.662;2023-04-04T10:54:56;102302.25;;;17.11;24.90
11648;BME280;5880;52.342;9.662;2023-04-04T10:57:24;102301.72;;;16.72;24.95
11648;BME280;5880;52.342;9.662;2023-04-04T11:00:08;102288.88;;;16.29;25.22
11648;BME280;5880;52.342;9.662;2023-04-04T11:05:31;102285.53;;;15.58;25.52
11648;BME280;5880;52.342;9.662;2023-04-04T11:08:02;102282.94;;;15.38;26.00
11648;BME280;5880;52.342;9.662;2023-04-04T11:12:56;102270.38;;;15.17;26.35
11648;BME280;5880;52.342;9.662;2023-04-04T11:18:21;102252.91;;;15.05;26.75
11648;BME280;5880;52.342;9.662;2023-04-04T11:20:48;102267.75;;;15.04;27.05
11648;BME280;5880;52.342;9.662;2023-04-04T11:23:16;102262.25;;;15.04;26.81
11648;BME280;5880;52.342;9.662;2023-04-04T11:25:55;102266.03;;;15.03;26.62
11648;BME280;5880;52.342;9.662;2023-04-04T11:34:10;102249.63;;;14.89;27.17
11648;BME280;5880;52.342;9.662;2023-04-04T11:44:19;102241.34;;;14.51;27.16
11648;BME280;5880;52.342;9.662;2023-04-04T11:46:45;102238.81;;;14.49;26.92
11648;BME280;5880;52.342;9.662;2023-04-04T11:49:15;102242.44;;;14.43;26.79
11648;BME280;5880;52.342;9.662;2023-04-04T11:51:41;102226.63;;;14.25;26.76
11648;BME280;5880;52.342;9.662;2023-04-04T11:54:16;102233.69;;;14.14;26.52
11648;BME280;5880;52.342;9.662;2023-04-04T11:56:45;102236.91;;;14.05;26.87
11648;BME280;5880;52.342;9.662;2023-04-04T11:59:19;102225.91;;;13.98;26.96
11648;BME280;5880;52.342;9.662;2023-04-04T12:01:45;102228.69;;;13.91;26.92
11648;BME280;5880;52.342;9.662;2023-04-04T12:04:15;102224.47;;;13.89;26.97
11648;BME280;5880;52.342;9.662;2023-04-04T12:06:42;102218.13;;;13.82;26.92
11648;BME280;5880;52.342;9.662;2023-04-04T12:09:09;102209.06;;;13.68;26.94
11648;BME280;5880;52.342;9.662;2023-04-04T12:11:37;102218.16;;;13.68;27.38
11648;BME280;5880;52.342;9.662;2023-04-04T12:14:04;102207.59;;;13.72;27.45
11648;BME280;5880;52.342;9.662;2023-04-04T12:16:29;102205.66;;;13.79;27.61
11648;BME280;5880;52.342;9.662;2023-04-04T12:19:00;102210.47;;;13.90;27.60
11648;BME280;5880;52.342;9.662;2023-04-04T12:21:26;102205.19;;;13.96;27.44
11648;BME280;5880;52.342;9.662;2023-04-04T12:23:55;102190.38;;;13.97;27.70
11648;BME280;5880;52.342;9.662;2023-04-04T12:26:20;102193.09;;;14.03;27.65
11648;BME280;5880;52.342;9.662;2023-04-04T12:28:47;102191.19;;;14.10;27.27
11648;BME280;5880;52.342;9.662;2023-04-04T12:31:14;102189.50;;;14.09;27.52
11648;BME280;5880;52.342;9.662;2023-04-04T12:33:41;102180.63;;;14.07;27.48
11648;BME280;5880;52.342;9.662;2023-04-04T12:36:07;102188.44;;;14.04;27.23
11648;BME280;5880;52.342;9.662;2023-04-04T12:38:33;102176.63;;;14.03;27.53
11648;BME280;5880;52.342;9.662;2023-04-04T12:40:59;102174.25;;;14.07;27.41
11648;BME280;5880;52.342;9.662;2023-04-04T12:43:28;102164.97;;;14.08;27.47
11648;BME280;5880;52.342;9.662;2023-04-04T12:45:56;102173.41;;;14.06;27.24
11648;BME280;5880;52.342;9.662;2023-04-04T12:48:28;102174.91;;;14.02;27.33
11648;BME280;5880;52.342;9.662;2023-04-04T12:50:59;102168.19;;;13.98;27.17
11648;BME280;5880;52.342;9.662;2023-04-04T12:53:29;102177.47;;;13.97;27.23
11648;BME280;5880;52.342;9.662;2023-04-04T12:56:00;102169.47;;;13.96;27.03
11648;BME280;5880;52.342;9.662;2023-04-04T12:58:27;102171.97;;;13.97;27.31
11648;BME280;5880;52.342;9.662;2023-04-04T13:00:54;102163.06;;;14.02;27.42
11648;BME280;5880;52.342;9.662;2023-04-04T13:03:24;102163.50;;;14.05;27.06
11648;BME280;5880;52.342;9.662;2023-04-04T13:05:50;102154.19;;;14.00;26.90
11648;BME280;5880;52.342;9.662;2023-04-04T13:08:19;102152.34;;;13.93;27.07
11648;BME280;5880;52.342;9.662;2023-04-04T13:11:04;102142.19;;;13.94;27.34
11648;BME280;5880;52.342;9.662;2023-04-04T13:13:40;102144.72;;;13.96;27.43
11648;BME280;5880;52.342;9.662;2023-04-04T13:16:28;102135.59;;;14.02;27.69
11648;BME280;5880;52.342;9.662;2023-04-04T13:18:54;102132.22;;;14.00;27.73
11648;BME280;5880;52.342;9.662;2023-04-04T13:21:20;102129.22;;;14.08;27.78
11648;BME280;5880;52.342;9.662;2023-04-04T13:23:46;102122.00;;;14.13;27.73
11648;BME280;5880;52.342;9.662;2023-04-04T13:26:12;102119.22;;;14.20;27.51
11648;BME280;5880;52.342;9.662;2023-04-04T13:28:38;102108.41;;;14.19;27.54
11648;BME280;5880;52.342;9.662;2023-04-04T13:31:06;102120.63;;;14.29;27.70
11648;BME280;5880;52.342;9.662;2023-04-04T13:33:33;102111.09;;;14.32;27.63